WetterOnline ( https://www.wetteronline.de )

Wetter aktuell Siegerland (in 500m)

Aktuelles Wetter: Bad Marienberg (555m)

6-stündlich | Neueste Meldungen
Ortszeit Temperatur Wetter
So, 22.05. 8:00 12.8° C bewölkt
So, 22.05. 2:00 11.4° C fast wolkenlos
Sa, 21.05. 20:00 14.2° C bedeckt
Sa, 21.05. 14:00 13.7° C bewölkt
Sa, 21.05. 8:00 9.0° C bewölkt
Sa, 21.05. 2:00 9.4° C bewölkt
Fr, 20.05. 20:00 15.1° C Regen
Fr, 20.05. 14:00 19.7° C Sprühregen
Ortszeit Temperatur Wetter
So, 22.05. 10:00 14.6° C bewölkt
So, 22.05. 9:50 14.6° C bewölkt
So, 22.05. 9:40 14.7° C wolkig
So, 22.05. 9:30 13.7° C bewölkt
So, 22.05. 9:20 13.7° C bewölkt
So, 22.05. 9:10 14.3° C bewölkt
So, 22.05. 9:00 13.7° C wolkig
So, 22.05. 8:30 12.8° C wolkig
So, 22.05. 8:00 12.8° C bewölkt
So, 22.05. 7:30 12.0° C bewölkt
So, 22.05. 7:00 11.5° C bewölkt
Ortszeit Relative Feuchte Sichtweite
So, 22.05. 8:00 67% 35 km
So, 22.05. 2:00 70% 40 km
Sa, 21.05. 20:00 63% 65 km
Sa, 21.05. 14:00 64% >70 km
Sa, 21.05. 8:00 87% 60 km
Sa, 21.05. 2:00 92% 18 km
Fr, 20.05. 20:00 96% 27 km
Fr, 20.05. 14:00 79% 35 km
Ortszeit Relative Feuchte Sichtweite
So, 22.05. 10:00 65% 40 km
So, 22.05. 9:50 65% -
So, 22.05. 9:40 63% -
So, 22.05. 9:30 69% 40 km
So, 22.05. 9:20 69% -
So, 22.05. 9:10 68% -
So, 22.05. 9:00 70% 35 km
So, 22.05. 8:30 68% 30 km
So, 22.05. 8:00 67% 35 km
So, 22.05. 7:30 68% 45 km
So, 22.05. 7:00 68% 40 km
Ortszeit Niederschlagsmenge Niederschlagsart
So, 22.05. 8:00 0.0 l/m2 in 12 Std. -
So, 22.05. 2:00 0.0 l/m2 in 6 Std. -
Sa, 21.05. 20:00 0.0 l/m2 in 12 Std. -
Sa, 21.05. 14:00 0.0 l/m2 in 6 Std. -
Sa, 21.05. 8:00 0.1 l/m2 in 12 Std. -
Sa, 21.05. 2:00 0.1 l/m2 in 6 Std. Regen
Fr, 20.05. 20:00 22 l/m2 in 12 Std. Regen
Fr, 20.05. 14:00 0.1 l/m2 in 6 Std. Regen
Ortszeit Niederschlagsmenge Niederschlagsart
So, 22.05. 10:00 0.0 l/m2 in 1 Std. -
So, 22.05. 9:50 keine Meldung -
So, 22.05. 9:40 keine Meldung -
So, 22.05. 9:30 0.0 l/m2 in 1 Std. -
So, 22.05. 9:20 keine Meldung -
So, 22.05. 9:10 keine Meldung -
So, 22.05. 9:00 0.0 l/m2 in 1 Std. -
So, 22.05. 8:30 0.0 l/m2 in 1 Std. -
So, 22.05. 8:00 0.0 l/m2 in 1 Std. -
So, 22.05. 7:30 0.0 l/m2 in 1 Std. -
So, 22.05. 7:00 0.0 l/m2 in 1 Std. -
Ortszeit Stärke Spitze Richtung
km/h Bft. km/h Grad Sektor
So, 22.05. 8:00 6 1 7 130° SO
So, 22.05. 2:00 4 1 14 350° N
Sa, 21.05. 20:00 4 1 29 300° NW
Sa, 21.05. 14:00 13 3 33 290° W
Sa, 21.05. 8:00 15 3 37 250° W
Sa, 21.05. 2:00 15 3 50 290° W
Fr, 20.05. 20:00 13 3 33 260° W
Fr, 20.05. 14:00 14 3 29 160° S
Ortszeit Stärke Spitze Richtung
km/h Bft. km/h Grad Sektor
So, 22.05. 10:00 7 2 14 150° SO
So, 22.05. 9:50 7 2 - 150° SO
So, 22.05. 9:40 6 1 - 160° S
So, 22.05. 9:30 7 2 11 180° S
So, 22.05. 9:20 7 2 - 180° S
So, 22.05. 9:10 6 1 - 160° S
So, 22.05. 9:00 7 2 11 130° SO
So, 22.05. 8:30 4 1 7 130° SO
So, 22.05. 8:00 6 1 7 130° SO
So, 22.05. 7:30 4 1 7 90° O
So, 22.05. 7:00 4 1 7 100° O
Ortszeit Untergrenze Bedeckung Gattung
total tief tief mittel hoch
So, 22.05. 8:00 1230 m 7/8 7/8 - - -
So, 22.05. 2:00 7800 m 2/8 0/8 - - -
Sa, 21.05. 20:00 3900 m 8/8 8/8 - - -
Sa, 21.05. 14:00 870 m 7/8 6/8 - - -
Sa, 21.05. 8:00 420 m 7/8 7/8 - - -
Sa, 21.05. 2:00 270 m 7/8 7/8 - - -
Fr, 20.05. 20:00 120 m 8/8 8/8 - - -
Fr, 20.05. 14:00 450 m 8/8 2/8 - - -
Ortszeit Bedeckungsgrad in Achtel und Wolkenuntergrenze
So, 22.05. 10:00 6(1140m) 7(6900m)
So, 22.05. 9:50 6(1140m) 7(6900m)
So, 22.05. 9:40 6
So, 22.05. 9:30 6(1080m) 7(8700m)
So, 22.05. 9:20 6(1080m) 7(8700m)
So, 22.05. 9:10 7
So, 22.05. 9:00 4(1170m) 7(7800m) 7(8700m)
So, 22.05. 8:30 4(1200m) 7(9000m)
So, 22.05. 8:00 7(1230m)
So, 22.05. 7:30 7(1230m) 7(9000m)
So, 22.05. 7:00 7(1260m)
Ortszeit Luftdruck NN (hPa) Tendenz (hPa in 3 Std.)
So, 22.05. 8:00 1018 - 0,6
So, 22.05. 2:00 1020 - 0,9
Sa, 21.05. 20:00 1020 - 1,2
Sa, 21.05. 14:00 1022 + 0,3
Sa, 21.05. 8:00 1022 + 0,4
Sa, 21.05. 2:00 1021 + 1,6
Fr, 20.05. 20:00 1015 - 0,7
Fr, 20.05. 14:00 1016 - 2,4
Ortszeit Luftdruck NN (hPa) Tendenz (hPa in 3 Std.)
So, 22.05. 10:00 1017 - 0,3
So, 22.05. 9:50 1017 keine Meldung
So, 22.05. 9:40 1017 keine Meldung
So, 22.05. 9:30 1017 0,0
So, 22.05. 9:20 1017 keine Meldung
So, 22.05. 9:10 1017 keine Meldung
So, 22.05. 9:00 1017 - 0,4
So, 22.05. 8:30 1017 - 0,4
So, 22.05. 8:00 1018 - 0,6
So, 22.05. 7:30 1018 - 0,9
So, 22.05. 7:00 1018 - 0,8
Ortszeit Schneehöhe (cm)
So, 22.05. 8:00 0
So, 22.05. 2:00 0
Sa, 21.05. 20:00 0
Sa, 21.05. 14:00 0
Sa, 21.05. 8:00 0
Sa, 21.05. 2:00 0
Fr, 20.05. 20:00 0
Fr, 20.05. 14:00 0
Ortszeit Schneehöhe (cm)
So, 22.05. 10:00 0
So, 22.05. 9:50 0
So, 22.05. 9:40 0
So, 22.05. 9:30 0
So, 22.05. 9:20 0
So, 22.05. 9:10 0
So, 22.05. 9:00 0
So, 22.05. 8:30 0
So, 22.05. 8:00 0
So, 22.05. 7:30 0
So, 22.05. 7:00 0
Link zu dieser Seite / Seite empfehlen

Das Wetter in ...